Terminal Aerodrome Forecast
Issued by NWS

Home | Current Version | Previous Version | Text Only | Print | Product List | Glossary On
Versions: 1 2 3 4 5 6 7 8 9 10 11 12 13 14 15 16 17 18 19 20 21
000
FTUS45 KREV 241134
TAFTRK
TAF
KTRK 241134Z 2412/2512 19005KT 3SM -RASN OVC020
     FM241400 21012G20KT P6SM VCSH SCT025 BKN035 OVC050
     FM241900 24016G28KT P6SM VCSH BKN040 OVC080
     FM250200 22011G20KT P6SM SCT040 BKN080
     FM250400 VRB03KT P6SM SCT050=

USA.gov is the U.S. government's official web portal to all federal, state and local government web resources and services.